CYHA

Quaqtaq Airport

ICAO Code CYHA
IATA Code YQC
Name Quaqtaq Airport
Location Quaqtaq, Quebec, CA
Elevation 106 Feet / 32.3 Meters
Latitude 61.04638889
Longitude -69.61777778
METAR CYHA 072100Z 12010KT 15SM BKN022 BKN050 02/00 A3018 RMK SC5SC2 SN COV/MED PACK LAST STFD OBS/NEXT 081200 UTC SLP223
Extra information Display Charts and CFS
Display NOTAMS
Runway Length Width Surface Elevation
36 3520 ft 100 ft GRAVEL 104 ft
18 3520 ft 100 ft GRAVEL 95 ft